sensor_id;sensor_type;location;lat;lon;timestamp;pressure;altitude;pressure_sealevel;temperature;humidity
60228;BME280;46091;46.512;6.626;2023-01-31T06:45:48;98016.94;;;4.54;63.40
60228;BME280;46091;46.512;6.626;2023-01-31T06:47:51;98016.19;;;4.84;62.84
60228;BME280;46091;46.512;6.626;2023-01-31T06:49:54;98008.19;;;5.06;62.59
60228;BME280;46091;46.512;6.626;2023-01-31T06:51:56;98010.22;;;5.23;62.10
60228;BME280;46091;46.512;6.626;2023-01-31T06:53:59;98002.00;;;5.38;61.87
60228;BME280;46091;46.512;6.626;2023-01-31T06:56:02;98007.44;;;5.46;61.90
60228;BME280;46091;46.512;6.626;2023-01-31T06:58:05;98009.97;;;5.57;61.74
60228;BME280;46091;46.512;6.626;2023-01-31T07:00:09;98010.94;;;5.66;61.52
60228;BME280;46091;46.512;6.626;2023-01-31T07:02:14;98012.91;;;5.73;61.37
60228;BME280;46091;46.512;6.626;2023-01-31T07:04:17;98016.00;;;5.78;61.31
60228;BME280;46091;46.512;6.626;2023-01-31T07:06:20;98013.09;;;5.81;61.08
60228;BME280;46091;46.512;6.626;2023-01-31T07:08:23;98023.19;;;5.86;61.13
60228;BME280;46091;46.512;6.626;2023-01-31T07:10:26;98032.56;;;5.89;61.06
60228;BME280;46091;46.512;6.626;2023-01-31T07:12:29;98028.91;;;5.91;60.97
60228;BME280;46091;46.512;6.626;2023-01-31T07:14:32;98030.44;;;5.94;60.88
60228;BME280;46091;46.512;6.626;2023-01-31T07:16:34;98032.09;;;5.95;60.69
60228;BME280;46091;46.512;6.626;2023-01-31T07:18:39;98032.63;;;5.98;60.58
60228;BME280;46091;46.512;6.626;2023-01-31T07:20:42;98035.00;;;6.01;60.60
60228;BME280;46091;46.512;6.626;2023-01-31T07:22:53;98034.88;;;6.03;60.50
60228;BME280;46091;46.512;6.626;2023-01-31T07:24:57;98038.19;;;6.05;60.58
60228;BME280;46091;46.512;6.626;2023-01-31T07:27:00;98047.59;;;6.07;60.27
60228;BME280;46091;46.512;6.626;2023-01-31T07:29:03;98045.50;;;6.11;60.17
60228;BME280;46091;46.512;6.626;2023-01-31T07:31:07;98045.97;;;6.16;60.14
60228;BME280;46091;46.512;6.626;2023-01-31T07:33:11;98037.13;;;6.17;59.97
60228;BME280;46091;46.512;6.626;2023-01-31T07:35:16;98045.69;;;6.19;59.89
60228;BME280;46091;46.512;6.626;2023-01-31T07:37:19;98039.31;;;6.22;59.78
60228;BME280;46091;46.512;6.626;2023-01-31T07:39:22;98040.88;;;6.24;59.88
60228;BME280;46091;46.512;6.626;2023-01-31T07:41:25;98037.28;;;6.25;59.61
60228;BME280;46091;46.512;6.626;2023-01-31T07:43:29;98045.00;;;6.27;59.48
60228;BME280;46091;46.512;6.626;2023-01-31T07:45:34;98038.78;;;6.28;59.68
60228;BME280;46091;46.512;6.626;2023-01-31T07:47:38;98045.72;;;6.29;59.49
60228;BME280;46091;46.512;6.626;2023-01-31T07:49:41;98046.53;;;6.29;59.51
60228;BME280;46091;46.512;6.626;2023-01-31T07:51:47;98044.59;;;6.31;59.44
60228;BME280;46091;46.512;6.626;2023-01-31T07:53:53;98046.25;;;6.32;59.23
60228;BME280;46091;46.512;6.626;2023-01-31T07:56:04;98052.22;;;6.34;59.27
60228;BME280;46091;46.512;6.626;2023-01-31T07:58:07;98058.16;;;6.36;59.29
60228;BME280;46091;46.512;6.626;2023-01-31T08:00:11;98057.19;;;6.37;59.17
60228;BME280;46091;46.512;6.626;2023-01-31T08:02:28;98058.72;;;6.40;59.00
60228;BME280;46091;46.512;6.626;2023-01-31T08:04:48;98062.88;;;6.42;59.01
60228;BME280;46091;46.512;6.626;2023-01-31T08:06:54;98060.09;;;6.44;59.02
60228;BME280;46091;46.512;6.626;2023-01-31T08:08:57;98066.91;;;6.47;58.72
60228;BME280;46091;46.512;6.626;2023-01-31T08:11:00;98064.81;;;6.50;58.70
60228;BME280;46091;46.512;6.626;2023-01-31T08:13:05;98069.94;;;6.52;58.54
60228;BME280;46091;46.512;6.626;2023-01-31T08:15:09;98075.75;;;6.55;58.72
60228;BME280;46091;46.512;6.626;2023-01-31T08:17:12;98082.53;;;6.58;58.33
60228;BME280;46091;46.512;6.626;2023-01-31T08:19:14;98078.94;;;6.59;58.19
60228;BME280;46091;46.512;6.626;2023-01-31T08:21:18;98077.28;;;6.58;58.30
60228;BME280;46091;46.512;6.626;2023-01-31T08:23:23;98084.19;;;6.59;58.29
60228;BME280;46091;46.512;6.626;2023-01-31T08:25:26;98096.38;;;6.60;58.24
60228;BME280;46091;46.512;6.626;2023-01-31T08:27:32;98100.50;;;6.62;58.25
60228;BME280;46091;46.512;6.626;2023-01-31T08:29:35;98098.03;;;6.61;58.19
60228;BME280;46091;46.512;6.626;2023-01-31T08:31:39;98114.34;;;6.64;57.99
60228;BME280;46091;46.512;6.626;2023-01-31T08:33:42;98111.56;;;6.66;58.14
60228;BME280;46091;46.512;6.626;2023-01-31T08:35:45;98111.56;;;6.66;58.12
60228;BME280;46091;46.512;6.626;2023-01-31T08:37:48;98108.94;;;6.66;58.05
60228;BME280;46091;46.512;6.626;2023-01-31T08:39:52;98114.88;;;6.68;57.92
60228;BME280;46091;46.512;6.626;2023-01-31T08:41:55;98107.44;;;6.73;57.76
60228;BME280;46091;46.512;6.626;2023-01-31T08:43:58;98107.44;;;6.73;57.88
60228;BME280;46091;46.512;6.626;2023-01-31T08:46:05;98116.00;;;6.75;57.93
60228;BME280;46091;46.512;6.626;2023-01-31T08:48:08;98116.56;;;6.79;57.83
60228;BME280;46091;46.512;6.626;2023-01-31T08:50:12;98110.22;;;6.81;57.49
60228;BME280;46091;46.512;6.626;2023-01-31T08:52:27;98100.41;;;6.83;57.42
60228;BME280;46091;46.512;6.626;2023-01-31T08:54:35;98107.16;;;6.86;57.42
60228;BME280;46091;46.512;6.626;2023-01-31T08:56:40;98090.56;;;6.85;57.37
60228;BME280;46091;46.512;6.626;2023-01-31T08:58:43;98092.22;;;6.86;57.51
60228;BME280;46091;46.512;6.626;2023-01-31T09:00:46;98089.47;;;6.88;57.42
60228;BME280;46091;46.512;6.626;2023-01-31T09:02:52;98098.75;;;6.92;57.27
60228;BME280;46091;46.512;6.626;2023-01-31T09:04:56;98099.44;;;6.94;57.20
60228;BME280;46091;46.512;6.626;2023-01-31T09:07:00;98106.34;;;6.95;57.13
60228;BME280;46091;46.512;6.626;2023-01-31T09:09:03;98103.84;;;6.93;57.06
60228;BME280;46091;46.512;6.626;2023-01-31T09:11:06;98103.56;;;6.96;57.41
60228;BME280;46091;46.512;6.626;2023-01-31T09:13:10;98110.50;;;6.97;57.16
60228;BME280;46091;46.512;6.626;2023-01-31T09:15:13;98111.31;;;6.98;57.18
60228;BME280;46091;46.512;6.626;2023-01-31T09:17:16;98110.94;;;7.03;56.95
60228;BME280;46091;46.512;6.626;2023-01-31T09:19:19;98119.63;;;7.03;57.17
60228;BME280;46091;46.512;6.626;2023-01-31T09:21:24;98124.06;;;7.03;56.99
60228;BME280;46091;46.512;6.626;2023-01-31T09:23:29;98123.09;;;7.04;57.17
60228;BME280;46091;46.512;6.626;2023-01-31T09:25:33;98124.63;;;7.06;56.72
60228;BME280;46091;46.512;6.626;2023-01-31T09:27:47;98131.53;;;7.07;56.80
60228;BME280;46091;46.512;6.626;2023-01-31T09:29:55;98144.53;;;7.09;56.69
60228;BME280;46091;46.512;6.626;2023-01-31T09:31:58;98134.03;;;7.09;56.89
60228;BME280;46091;46.512;6.626;2023-01-31T09:34:01;98149.50;;;7.12;56.80
60228;BME280;46091;46.512;6.626;2023-01-31T09:36:06;98141.63;;;7.12;56.65
60228;BME280;46091;46.512;6.626;2023-01-31T09:38:10;98140.66;;;7.13;56.62
60228;BME280;46091;46.512;6.626;2023-01-31T09:40:20;98157.84;;;7.17;56.89
60228;BME280;46091;46.512;6.626;2023-01-31T09:42:29;98145.66;;;7.16;56.83
60228;BME280;46091;46.512;6.626;2023-01-31T09:44:37;98162.81;;;7.20;56.75
60228;BME280;46091;46.512;6.626;2023-01-31T09:46:45;98156.72;;;7.19;56.36
60228;BME280;46091;46.512;6.626;2023-01-31T09:48:52;98161.44;;;7.16;56.48
60228;BME280;46091;46.512;6.626;2023-01-31T09:50:57;98164.06;;;7.16;56.68
60228;BME280;46091;46.512;6.626;2023-01-31T09:53:01;98161.44;;;7.16;56.60
60228;BME280;46091;46.512;6.626;2023-01-31T09:55:05;98164.06;;;7.16;56.80
60228;BME280;46091;46.512;6.626;2023-01-31T09:57:18;98164.63;;;7.19;56.37
60228;BME280;46091;46.512;6.626;2023-01-31T09:59:29;98167.09;;;7.21;56.52
60228;BME280;46091;46.512;6.626;2023-01-31T10:01:41;98157.25;;;7.23;56.39
60228;BME280;46091;46.512;6.626;2023-01-31T10:04:00;98171.13;;;7.25;56.41
60228;BME280;46091;46.512;6.626;2023-01-31T10:06:16;98166.56;;;7.27;56.22
60228;BME280;46091;46.512;6.626;2023-01-31T10:08:30;98171.13;;;7.25;56.32
60228;BME280;46091;46.512;6.626;2023-01-31T10:10:44;98169.88;;;7.29;56.59
60228;BME280;46091;46.512;6.626;2023-01-31T10:12:55;98182.19;;;7.28;56.35
60228;BME280;46091;46.512;6.626;2023-01-31T10:15:02;98177.78;;;7.29;56.28
60228;BME280;46091;46.512;6.626;2023-01-31T10:17:12;98171.69;;;7.28;56.46
60228;BME280;46091;46.512;6.626;2023-01-31T10:19:22;98170.56;;;7.31;56.30
60228;BME280;46091;46.512;6.626;2023-01-31T10:21:31;98177.78;;;7.29;56.26
60228;BME280;46091;46.512;6.626;2023-01-31T10:23:39;98175.53;;;7.24;56.18
60228;BME280;46091;46.512;6.626;2023-01-31T10:25:47;98166.13;;;7.22;56.33
60228;BME280;46091;46.512;6.626;2023-01-31T10:27:53;98171.81;;;7.27;56.31
60228;BME280;46091;46.512;6.626;2023-01-31T10:30:03;98180.94;;;7.33;56.43
60228;BME280;46091;46.512;6.626;2023-01-31T10:32:14;98183.88;;;7.39;56.17
60228;BME280;46091;46.512;6.626;2023-01-31T10:34:25;98182.47;;;7.45;56.30
60228;BME280;46091;46.512;6.626;2023-01-31T10:36:33;98184.69;;;7.49;56.21
60228;BME280;46091;46.512;6.626;2023-01-31T10:38:39;98181.78;;;7.52;56.06
60228;BME280;46091;46.512;6.626;2023-01-31T10:40:47;98179.13;;;7.52;56.05
60228;BME280;46091;46.512;6.626;2023-01-31T10:42:57;98173.03;;;7.52;56.15
60228;BME280;46091;46.512;6.626;2023-01-31T10:45:05;98169.44;;;7.53;55.76
60228;BME280;46091;46.512;6.626;2023-01-31T10:47:31;98173.59;;;7.55;55.81
60228;BME280;46091;46.512;6.626;2023-01-31T10:49:35;98159.75;;;7.53;55.94
60228;BME280;46091;46.512;6.626;2023-01-31T10:51:50;98156.13;;;7.54;56.05
60228;BME280;46091;46.512;6.626;2023-01-31T10:54:09;98149.75;;;7.57;56.01
60228;BME280;46091;46.512;6.626;2023-01-31T10:56:19;98145.31;;;7.57;55.94
60228;BME280;46091;46.512;6.626;2023-01-31T10:58:26;98155.84;;;7.57;55.90
60228;BME280;46091;46.512;6.626;2023-01-31T11:00:31;98152.81;;;7.62;56.03
60228;BME280;46091;46.512;6.626;2023-01-31T11:02:34;98155.97;;;7.66;55.70
60228;BME280;46091;46.512;6.626;2023-01-31T11:04:40;98147.94;;;7.67;55.81
60228;BME280;46091;46.512;6.626;2023-01-31T11:06:43;98141.84;;;7.67;55.93
60228;BME280;46091;46.512;6.626;2023-01-31T11:08:47;98136.59;;;7.67;55.96
60228;BME280;46091;46.512;6.626;2023-01-31T11:10:54;98141.44;;;7.71;55.74
60228;BME280;46091;46.512;6.626;2023-01-31T11:12:59;98149.03;;;7.74;55.92
60228;BME280;46091;46.512;6.626;2023-01-31T11:15:04;98141.84;;;7.76;55.73
60228;BME280;46091;46.512;6.626;2023-01-31T11:17:14;98137.81;;;7.82;55.53
60228;BME280;46091;46.512;6.626;2023-01-31T11:19:20;98120.59;;;7.87;55.88
60228;BME280;46091;46.512;6.626;2023-01-31T11:21:28;98124.75;;;7.90;55.52
60228;BME280;46091;46.512;6.626;2023-01-31T11:23:33;98117.09;;;7.97;55.59
60228;BME280;46091;46.512;6.626;2023-01-31T11:25:37;98110.56;;;8.01;55.43
60228;BME280;46091;46.512;6.626;2023-01-31T11:27:41;98102.81;;;7.99;55.36
60228;BME280;46091;46.512;6.626;2023-01-31T11:29:47;98102.13;;;7.97;55.28
60228;BME280;46091;46.512;6.626;2023-01-31T11:31:52;98092.88;;;7.93;55.58
60228;BME280;46091;46.512;6.626;2023-01-31T11:33:57;98105.63;;;7.88;55.69
60228;BME280;46091;46.512;6.626;2023-01-31T11:36:06;98101.50;;;7.85;55.43
60228;BME280;46091;46.512;6.626;2023-01-31T11:38:21;98100.38;;;7.88;55.50
60228;BME280;46091;46.512;6.626;2023-01-31T11:40:30;98092.63;;;7.86;55.25
60228;BME280;46091;46.512;6.626;2023-01-31T11:42:34;98101.50;;;7.85;55.49
60228;BME280;46091;46.512;6.626;2023-01-31T11:45:02;98095.97;;;7.79;55.64
60228;BME280;46091;46.512;6.626;2023-01-31T11:47:11;98090.69;;;7.79;55.35
60228;BME280;46091;46.512;6.626;2023-01-31T11:49:29;98085.16;;;7.82;55.26
60228;BME280;46091;46.512;6.626;2023-01-31T11:51:33;98092.34;;;7.80;55.30
60228;BME280;46091;46.512;6.626;2023-01-31T11:53:44;98091.66;;;7.78;55.47
60228;BME280;46091;46.512;6.626;2023-01-31T11:55:50;98095.13;;;7.78;55.58
60228;BME280;46091;46.512;6.626;2023-01-31T11:57:56;98097.63;;;7.80;55.32
60228;BME280;46091;46.512;6.626;2023-01-31T12:00:02;98101.22;;;7.79;55.21
60228;BME280;46091;46.512;6.626;2023-01-31T12:02:21;98097.63;;;7.80;55.27
60228;BME280;46091;46.512;6.626;2023-01-31T12:04:31;98100.94;;;7.82;55.07
60228;BME280;46091;46.512;6.626;2023-01-31T12:06:37;98091.50;;;7.79;55.11
60228;BME280;46091;46.512;6.626;2023-01-31T12:08:42;98102.88;;;7.80;55.20
60228;BME280;46091;46.512;6.626;2023-01-31T12:10:45;98098.44;;;7.80;55.37
60228;BME280;46091;46.512;6.626;2023-01-31T12:12:50;98099.41;;;7.79;55.39
60228;BME280;46091;46.512;6.626;2023-01-31T12:14:54;98093.63;;;7.76;55.32
60228;BME280;46091;46.512;6.626;2023-01-31T12:16:59;98086.84;;;7.73;55.31
60228;BME280;46091;46.512;6.626;2023-01-31T12:19:16;98076.63;;;7.70;55.42
60228;BME280;46091;46.512;6.626;2023-01-31T12:21:39;98078.28;;;7.71;55.45
60228;BME280;46091;46.512;6.626;2023-01-31T12:23:53;98077.16;;;7.74;55.05
60228;BME280;46091;46.512;6.626;2023-01-31T12:26:08;98081.28;;;7.76;55.30
60228;BME280;46091;46.512;6.626;2023-01-31T12:28:20;98070.06;;;7.74;55.34
60228;BME280;46091;46.512;6.626;2023-01-31T12:30:51;98068.94;;;7.77;55.08
60228;BME280;46091;46.512;6.626;2023-01-31T12:33:12;98067.81;;;7.79;55.01
60228;BME280;46091;46.512;6.626;2023-01-31T12:35:28;98064.38;;;7.79;55.29
60228;BME280;46091;46.512;6.626;2023-01-31T12:37:40;98069.47;;;7.80;55.18
60228;BME280;46091;46.512;6.626;2023-01-31T12:40:01;98063.13;;;7.83;55.12
60228;BME280;46091;46.512;6.626;2023-01-31T12:42:39;98064.09;;;7.82;55.22
60228;BME280;46091;46.512;6.626;2023-01-31T12:44:48;98061.59;;;7.80;54.92
60228;BME280;46091;46.512;6.626;2023-01-31T12:47:05;98067.16;;;7.77;55.00
60228;BME280;46091;46.512;6.626;2023-01-31T12:49:28;98067.97;;;7.78;55.12
60228;BME280;46091;46.512;6.626;2023-01-31T12:51:41;98061.06;;;7.77;54.91
60228;BME280;46091;46.512;6.626;2023-01-31T12:53:58;98049.84;;;7.75;54.99
60228;BME280;46091;46.512;6.626;2023-01-31T12:56:25;98059.09;;;7.79;54.97
60228;BME280;46091;46.512;6.626;2023-01-31T12:58:42;98042.47;;;7.78;54.93
60228;BME280;46091;46.512;6.626;2023-01-31T13:00:53;98046.75;;;7.79;54.94
60228;BME280;46091;46.512;6.626;2023-01-31T13:05:28;98041.34;;;7.81;54.82
60228;BME280;46091;46.512;6.626;2023-01-31T13:07:36;98047.31;;;7.83;54.76
60228;BME280;46091;46.512;6.626;2023-01-31T13:09:45;98037.78;;;7.82;54.81
60228;BME280;46091;46.512;6.626;2023-01-31T13:11:55;98043.03;;;7.82;54.60
60228;BME280;46091;46.512;6.626;2023-01-31T13:14:03;98027.78;;;7.85;54.71
60228;BME280;46091;46.512;6.626;2023-01-31T13:16:11;98031.91;;;7.88;54.63
60228;BME280;46091;46.512;6.626;2023-01-31T13:18:16;98038.81;;;7.89;54.61
60228;BME280;46091;46.512;6.626;2023-01-31T13:20:25;98027.31;;;7.90;54.41
60228;BME280;46091;46.512;6.626;2023-01-31T13:22:35;98026.63;;;7.88;54.36
60228;BME280;46091;46.512;6.626;2023-01-31T13:24:46;98023.84;;;7.89;54.43
60228;BME280;46091;46.512;6.626;2023-01-31T13:26:56;98008.72;;;7.92;54.17
60228;BME280;46091;46.512;6.626;2023-01-31T13:29:04;98005.84;;;7.95;54.26
60228;BME280;46091;46.512;6.626;2023-01-31T13:31:13;97996.13;;;7.95;54.09
60228;BME280;46091;46.512;6.626;2023-01-31T13:33:24;97993.34;;;7.97;54.18
60228;BME280;46091;46.512;6.626;2023-01-31T13:35:33;97975.88;;;7.96;53.88
60228;BME280;46091;46.512;6.626;2023-01-31T13:37:39;97983.63;;;7.97;53.85
60228;BME280;46091;46.512;6.626;2023-01-31T13:39:45;97981.00;;;7.97;53.98
60228;BME280;46091;46.512;6.626;2023-01-31T13:41:51;97984.31;;;7.99;54.01
60228;BME280;46091;46.512;6.626;2023-01-31T13:43:55;97978.22;;;7.99;53.76
60228;BME280;46091;46.512;6.626;2023-01-31T13:46:02;97976.56;;;7.98;53.92
60228;BME280;46091;46.512;6.626;2023-01-31T13:48:08;97986.94;;;7.99;53.68
60228;BME280;46091;46.512;6.626;2023-01-31T13:50:26;97979.03;;;7.99;53.86
60228;BME280;46091;46.512;6.626;2023-01-31T13:52:35;97986.94;;;7.99;53.75
60228;BME280;46091;46.512;6.626;2023-01-31T13:54:44;97997.19;;;8.02;54.01
60228;BME280;46091;46.512;6.626;2023-01-31T13:56:53;97997.19;;;8.02;53.66
60228;BME280;46091;46.512;6.626;2023-01-31T13:58:57;97991.75;;;8.04;53.80
60228;BME280;46091;46.512;6.626;2023-01-31T14:01:04;97982.75;;;8.06;53.71
60228;BME280;46091;46.512;6.626;2023-01-31T14:03:11;97988.69;;;8.08;53.57
60228;BME280;46091;46.512;6.626;2023-01-31T14:08:26;97990.28;;;8.19;53.84
60228;BME280;46091;46.512;6.626;2023-01-31T14:10:36;97993.44;;;8.23;53.67
60228;BME280;46091;46.512;6.626;2023-01-31T14:12:40;97996.75;;;8.25;53.52
60228;BME280;46091;46.512;6.626;2023-01-31T14:14:44;97994.13;;;8.25;53.54
60228;BME280;46091;46.512;6.626;2023-01-31T14:16:48;97992.88;;;8.29;53.49
60228;BME280;46091;46.512;6.626;2023-01-31T14:18:53;97981.03;;;8.33;53.39
60228;BME280;46091;46.512;6.626;2023-01-31T14:20:56;97990.31;;;8.37;53.25
60228;BME280;46091;46.512;6.626;2023-01-31T14:23:27;98001.41;;;8.40;53.59
60228;BME280;46091;46.512;6.626;2023-01-31T14:25:39;97987.25;;;8.41;53.47
60228;BME280;46091;46.512;6.626;2023-01-31T14:27:45;97984.47;;;8.43;53.45
60228;BME280;46091;46.512;6.626;2023-01-31T14:30:22;97994.34;;;8.41;53.41
60228;BME280;46091;46.512;6.626;2023-01-31T14:32:28;97989.06;;;8.41;53.45
60228;BME280;46091;46.512;6.626;2023-01-31T14:34:32;97985.44;;;8.42;53.57
60228;BME280;46091;46.512;6.626;2023-01-31T14:36:54;97988.25;;;8.40;53.26
60228;BME280;46091;46.512;6.626;2023-01-31T14:39:41;97989.75;;;8.43;53.63
60228;BME280;46091;46.512;6.626;2023-01-31T14:42:05;97983.47;;;8.44;53.42
60228;BME280;46091;46.512;6.626;2023-01-31T14:44:20;97981.69;;;8.44;53.11
60228;BME280;46091;46.512;6.626;2023-01-31T14:46:49;97981.69;;;8.44;53.22
60228;BME280;46091;46.512;6.626;2023-01-31T14:49:20;97977.38;;;8.43;53.40
60228;BME280;46091;46.512;6.626;2023-01-31T14:51:31;97969.47;;;8.43;53.25
60228;BME280;46091;46.512;6.626;2023-01-31T14:53:58;97965.03;;;8.44;53.01
60228;BME280;46091;46.512;6.626;2023-01-31T14:56:13;97964.53;;;8.40;53.27
60228;BME280;46091;46.512;6.626;2023-01-31T14:58:24;97959.41;;;8.39;52.92
60228;BME280;46091;46.512;6.626;2023-01-31T15:00:32;97959.69;;;8.36;53.25
60228;BME280;46091;46.512;6.626;2023-01-31T15:02:47;97971.31;;;8.33;53.15
60228;BME280;46091;46.512;6.626;2023-01-31T15:04:55;97965.94;;;8.35;53.07
60228;BME280;46091;46.512;6.626;2023-01-31T15:06:59;97954.69;;;8.33;53.35
60228;BME280;46091;46.512;6.626;2023-01-31T15:09:34;97950.88;;;8.27;53.42
60228;BME280;46091;46.512;6.626;2023-01-31T15:11:40;97957.09;;;8.26;53.21
60228;BME280;46091;46.512;6.626;2023-01-31T15:13:45;97957.56;;;8.22;53.34
60228;BME280;46091;46.512;6.626;2023-01-31T15:15:50;97953.09;;;8.22;53.46
60228;BME280;46091;46.512;6.626;2023-01-31T15:17:56;97952.28;;;8.22;53.57
60228;BME280;46091;46.512;6.626;2023-01-31T15:20:12;97946.03;;;8.23;53.37
60228;BME280;46091;46.512;6.626;2023-01-31T15:22:19;97949.34;;;8.25;53.55
60228;BME280;46091;46.512;6.626;2023-01-31T15:24:26;97952.66;;;8.27;53.80
60228;BME280;46091;46.512;6.626;2023-01-31T15:26:33;97961.25;;;8.29;53.39
60228;BME280;46091;46.512;6.626;2023-01-31T15:28:40;97964.03;;;8.27;53.30
60228;BME280;46091;46.512;6.626;2023-01-31T15:30:43;97970.25;;;8.26;53.40
60228;BME280;46091;46.512;6.626;2023-01-31T15:32:52;97978.16;;;8.26;53.79
60228;BME280;46091;46.512;6.626;2023-01-31T15:35:00;97984.97;;;8.29;53.70
60228;BME280;46091;46.512;6.626;2023-01-31T15:37:13;97983.69;;;8.33;53.63
60228;BME280;46091;46.512;6.626;2023-01-31T15:39:24;97982.69;;;8.34;53.56
60228;BME280;46091;46.512;6.626;2023-01-31T15:41:36;97989.66;;;8.35;53.80
60228;BME280;46091;46.512;6.626;2023-01-31T15:43:39;97992.97;;;8.37;53.64
60228;BME280;46091;46.512;6.626;2023-01-31T15:45:43;97985.06;;;8.37;53.42
60228;BME280;46091;46.512;6.626;2023-01-31T15:47:57;97979.50;;;8.40;53.85
60228;BME280;46091;46.512;6.626;2023-01-31T15:50:00;97977.53;;;8.42;53.67
60228;BME280;46091;46.512;6.626;2023-01-31T15:52:08;97986.44;;;8.41;53.55
60228;BME280;46091;46.512;6.626;2023-01-31T15:54:14;97991.84;;;8.39;53.55
60228;BME280;46091;46.512;6.626;2023-01-31T15:56:20;97992.69;;;8.40;53.56
60228;BME280;46091;46.512;6.626;2023-01-31T15:58:26;97988.38;;;8.39;53.50
60228;BME280;46091;46.512;6.626;2023-01-31T16:00:32;97984.78;;;8.40;53.66
60228;BME280;46091;46.512;6.626;2023-01-31T16:02:35;97975.34;;;8.37;53.65
60228;BME280;46091;46.512;6.626;2023-01-31T16:04:40;97977.84;;;8.39;53.66
60228;BME280;46091;46.512;6.626;2023-01-31T16:06:45;97973.53;;;8.38;53.43
60228;BME280;46091;46.512;6.626;2023-01-31T16:08:51;97962.59;;;8.33;53.76
60228;BME280;46091;46.512;6.626;2023-01-31T16:10:55;97968.34;;;8.28;53.58
60228;BME280;46091;46.512;6.626;2023-01-31T16:12:59;97970.41;;;8.25;53.88
60228;BME280;46091;46.512;6.626;2023-01-31T16:15:05;97980.94;;;8.25;53.77
60228;BME280;46091;46.512;6.626;2023-01-31T16:17:10;97969.44;;;8.26;53.82
60228;BME280;46091;46.512;6.626;2023-01-31T16:19:18;97974.56;;;8.27;53.65
60228;BME280;46091;46.512;6.626;2023-01-31T16:21:29;97966.78;;;8.26;53.82
60228;BME280;46091;46.512;6.626;2023-01-31T16:23:33;97969.44;;;8.26;54.06
60228;BME280;46091;46.512;6.626;2023-01-31T16:25:39;97976.34;;;8.27;53.93
60228;BME280;46091;46.512;6.626;2023-01-31T16:27:42;97969.31;;;8.27;53.92
60228;BME280;46091;46.512;6.626;2023-01-31T16:29:48;97970.13;;;8.28;54.05
60228;BME280;46091;46.512;6.626;2023-01-31T16:31:54;97972.06;;;8.26;53.92
60228;BME280;46091;46.512;6.626;2023-01-31T16:33:59;97985.25;;;8.26;53.93
60228;BME280;46091;46.512;6.626;2023-01-31T16:36:07;97995.78;;;8.26;53.94
60228;BME280;46091;46.512;6.626;2023-01-31T16:38:19;97994.69;;;8.28;54.07
60228;BME280;46091;46.512;6.626;2023-01-31T16:40:29;97987.59;;;8.29;53.72
60228;BME280;46091;46.512;6.626;2023-01-31T16:42:34;97982.03;;;8.32;54.02
60228;BME280;46091;46.512;6.626;2023-01-31T16:44:41;97974.13;;;8.32;54.08
60228;BME280;46091;46.512;6.626;2023-01-31T16:46:46;97968.69;;;8.33;53.99
60228;BME280;46091;46.512;6.626;2023-01-31T16:49:03;97950.41;;;8.32;53.74
60228;BME280;46091;46.512;6.626;2023-01-31T16:51:39;97950.56;;;8.30;53.85
60228;BME280;46091;46.512;6.626;2023-01-31T16:53:43;97955.97;;;8.29;53.99
60228;BME280;46091;46.512;6.626;2023-01-31T16:56:16;97940.59;;;8.24;53.75
60228;BME280;46091;46.512;6.626;2023-01-31T16:58:42;97933.00;;;8.21;53.85
60228;BME280;46091;46.512;6.626;2023-01-31T17:00:46;97938.44;;;8.20;54.09
60228;BME280;46091;46.512;6.626;2023-01-31T17:02:50;97953.41;;;8.19;53.98
60228;BME280;46091;46.512;6.626;2023-01-31T17:04:55;97963.13;;;8.18;54.23
60228;BME280;46091;46.512;6.626;2023-01-31T17:07:01;97967.41;;;8.20;54.07
60228;BME280;46091;46.512;6.626;2023-01-31T17:09:08;97971.69;;;8.21;54.13
60228;BME280;46091;46.512;6.626;2023-01-31T17:11:16;97976.81;;;8.22;53.91
60228;BME280;46091;46.512;6.626;2023-01-31T17:13:40;97962.97;;;8.20;54.08
60228;BME280;46091;46.512;6.626;2023-01-31T17:15:42;97955.91;;;8.21;53.90
60228;BME280;46091;46.512;6.626;2023-01-31T17:17:45;97964.47;;;8.23;54.00
60228;BME280;46091;46.512;6.626;2023-01-31T17:19:48;97960.03;;;8.23;54.03
60228;BME280;46091;46.512;6.626;2023-01-31T17:21:51;97959.88;;;8.25;54.07
60228;BME280;46091;46.512;6.626;2023-01-31T17:23:54;97956.25;;;8.26;53.98
60228;BME280;46091;46.512;6.626;2023-01-31T17:25:58;97965.16;;;8.25;53.90
60228;BME280;46091;46.512;6.626;2023-01-31T17:28:00;97966.94;;;8.24;54.32
60228;BME280;46091;46.512;6.626;2023-01-31T17:30:04;97970.56;;;8.23;54.19
60228;BME280;46091;46.512;6.626;2023-01-31T17:32:10;97974.03;;;8.24;54.05
60228;BME280;46091;46.512;6.626;2023-01-31T17:34:14;97977.34;;;8.26;54.16
60228;BME280;46091;46.512;6.626;2023-01-31T17:36:18;97982.59;;;8.26;54.15
60228;BME280;46091;46.512;6.626;2023-01-31T17:38:20;97984.25;;;8.27;54.16
60228;BME280;46091;46.512;6.626;2023-01-31T17:40:23;97980.78;;;8.26;54.15
60228;BME280;46091;46.512;6.626;2023-01-31T17:42:27;97981.63;;;8.27;54.49
60228;BME280;46091;46.512;6.626;2023-01-31T17:44:30;97974.56;;;8.27;54.22
60228;BME280;46091;46.512;6.626;2023-01-31T17:46:33;97981.50;;;8.28;54.33
60228;BME280;46091;46.512;6.626;2023-01-31T17:48:36;97985.94;;;8.28;54.54
60228;BME280;46091;46.512;6.626;2023-01-31T17:50:39;97982.47;;;8.27;54.36
60228;BME280;46091;46.512;6.626;2023-01-31T17:52:45;97979.00;;;8.27;54.53
60228;BME280;46091;46.512;6.626;2023-01-31T17:54:48;97972.06;;;8.26;54.41
60228;BME280;46091;46.512;6.626;2023-01-31T17:56:51;97972.06;;;8.26;54.58
60228;BME280;46091;46.512;6.626;2023-01-31T17:58:55;97975.69;;;8.25;54.66
60228;BME280;46091;46.512;6.626;2023-01-31T18:00:58;97983.88;;;8.22;54.36
60228;BME280;46091;46.512;6.626;2023-01-31T18:03:00;97982.91;;;8.23;54.47
60228;BME280;46091;46.512;6.626;2023-01-31T18:05:03;97988.84;;;8.25;54.30
60228;BME280;46091;46.512;6.626;2023-01-31T18:07:06;97983.31;;;8.28;54.28
60228;BME280;46091;46.512;6.626;2023-01-31T18:09:09;97983.97;;;8.30;54.61
60228;BME280;46091;46.512;6.626;2023-01-31T18:11:14;97972.31;;;8.32;54.44
60228;BME280;46091;46.512;6.626;2023-01-31T18:13:17;97966.88;;;8.34;54.53
60228;BME280;46091;46.512;6.626;2023-01-31T18:15:21;97961.63;;;8.34;54.20
60228;BME280;46091;46.512;6.626;2023-01-31T18:17:24;97965.94;;;8.35;54.41